Time;durP1;ratioP1;P1;durP2;ratioP2;P2;SDS_P1;SDS_P2;PMS_P1;PMS_P2;Temp;Humidity;BMP_temperature;BMP_pressure;BME280_temperature;BME280_humidity;BME280_pressure;Samples;Min_cycle;Max_cycle;Signal;HPM_P1;HPM_P2
2021/09/27 00:00:51;;;;;;;2.53;1.90;;;16.50;99.90;;;;;;4940616;28;20408;-86
2021/09/27 00:03:36;;;;;;;3.10;2.90;;;16.40;99.90;;;;;;4920292;28;20429;-86
2021/09/27 00:06:20;;;;;;;2.70;2.50;;;16.30;99.90;;;;;;4927463;28;20400;-88
2021/09/27 00:09:05;;;;;;;2.17;1.98;;;16.10;99.90;;;;;;4964983;28;20401;-88
2021/09/27 00:11:49;;;;;;;2.25;2.15;;;16.00;99.90;;;;;;4955411;28;20411;-91
2021/09/27 00:14:34;;;;;;;2.22;2.03;;;16.00;99.90;;;;;;4948289;28;20486;-89
2021/09/27 00:17:18;;;;;;;2.28;2.08;;;16.00;99.90;;;;;;4925578;28;20517;-88
2021/09/27 00:20:05;;;;;;;2.10;1.93;;;16.00;99.90;;;;;;4927102;28;20801;-87
2021/09/27 00:22:50;;;;;;;3.00;2.58;;;16.00;99.90;;;;;;4976916;28;20460;-89
2021/09/27 00:25:35;;;;;;;3.22;2.28;;;16.00;99.90;;;;;;4954700;28;20461;-86
2021/09/27 00:28:19;;;;;;;2.42;2.22;;;16.10;99.90;;;;;;4954675;28;20413;-88
2021/09/27 00:31:04;;;;;;;2.38;2.17;;;15.90;99.90;;;;;;4953807;28;20417;-90
2021/09/27 00:33:48;;;;;;;2.10;2.00;;;15.90;99.90;;;;;;4939958;28;20626;-87
2021/09/27 00:36:33;;;;;;;2.30;2.10;;;15.90;99.90;;;;;;4961605;28;20409;-89
2021/09/27 00:39:17;;;;;;;2.45;2.25;;;15.90;99.90;;;;;;4947051;28;20417;-89
2021/09/27 00:42:02;;;;;;;2.30;2.10;;;15.90;99.90;;;;;;4954116;28;20868;-88
2021/09/27 00:44:46;;;;;;;2.20;2.10;;;15.90;99.90;;;;;;4968574;28;20433;-87
2021/09/27 00:47:30;;;;;;;3.00;2.20;;;15.90;99.90;;;;;;4953135;28;20433;-89
2021/09/27 00:50:16;;;;;;;1.70;1.60;;;15.90;99.90;;;;;;4956927;28;20413;-85
2021/09/27 00:53:02;;;;;;;2.55;2.35;;;15.80;99.90;;;;;;4927995;28;20433;-92
2021/09/27 00:55:47;;;;;;;2.03;1.92;;;15.90;99.90;;;;;;4973477;28;20456;-87
2021/09/27 00:58:31;;;;;;;1.90;1.80;;;15.90;99.90;;;;;;4959947;28;20425;-87
2021/09/27 01:01:16;;;;;;;2.38;1.83;;;15.90;99.90;;;;;;4955591;28;20400;-90
2021/09/27 01:04:00;;;;;;;2.13;1.93;;;16.00;99.90;;;;;;4959706;28;20425;-90
2021/09/27 01:07:00;;;;;;;2.28;2.08;;;15.80;99.90;;;;;;4979934;28;20687;-88
2021/09/27 01:10:14;;;;;;;1.70;1.60;;;15.80;99.90;;;;;;4963540;28;20405;-87
2021/09/27 01:13:26;;;;;;;2.33;2.13;;;15.80;99.90;;;;;;4977780;28;20465;-89
2021/09/27 01:16:24;;;;;;;2.33;2.13;;;15.80;99.90;;;;;;4964823;28;20396;-87
2021/09/27 01:19:29;;;;;;;2.10;2.00;;;15.70;99.90;;;;;;4978318;28;20470;-89
2021/09/27 01:22:52;;;;;;;1.70;1.60;;;15.70;99.90;;;;;;4967234;28;20458;-89
2021/09/27 01:26:12;;;;;;;1.77;1.67;;;15.70;99.90;;;;;;4951799;28;21305;-86
2021/09/27 01:29:20;;;;;;;1.90;1.80;;;15.70;99.90;;;;;;4938036;28;20398;-88
2021/09/27 01:32:29;;;;;;;1.70;1.60;;;15.70;99.90;;;;;;4930685;28;20441;-91
2021/09/27 01:35:51;;;;;;;2.08;1.98;;;15.60;99.90;;;;;;4967346;28;20408;-87
2021/09/27 01:38:57;;;;;;;1.90;1.80;;;15.60;99.90;;;;;;4965560;28;20409;-89
2021/09/27 01:42:00;;;;;;;2.20;1.93;;;15.60;99.90;;;;;;4946702;28;20502;-86
2021/09/27 01:44:48;;;;;;;1.58;1.48;;;15.60;99.90;;;;;;4965701;28;20417;-87
2021/09/27 01:47:44;;;;;;;1.67;1.57;;;15.60;99.90;;;;;;4953368;28;20412;-88
2021/09/27 01:50:31;;;;;;;2.00;1.90;;;15.60;99.90;;;;;;4929664;28;20441;-88
2021/09/27 01:53:29;;;;;;;2.10;1.90;;;15.60;99.90;;;;;;4939395;28;20434;-88
2021/09/27 01:56:24;;;;;;;1.70;1.60;;;15.50;99.90;;;;;;4965052;28;20405;-89
2021/09/27 01:59:27;;;;;;;1.80;1.70;;;15.50;99.90;;;;;;4963196;28;20420;-90
2021/09/27 02:02:14;;;;;;;1.63;1.52;;;15.60;99.90;;;;;;4957330;28;20409;-89
2021/09/27 02:09:13;;;;;;;1.70;1.60;;;15.50;99.90;;;;;;4953964;28;20444;-89
2021/09/27 02:12:02;;;;;;;2.13;2.00;;;15.50;99.90;;;;;;4955347;28;20423;-91
2021/09/27 02:15:04;;;;;;;1.92;1.77;;;15.50;99.90;;;;;;4967196;28;20441;-88
2021/09/27 02:17:56;;;;;;;1.85;1.75;;;15.50;99.90;;;;;;4964094;28;20412;-91
2021/09/27 02:20:44;;;;;;;3.40;2.10;;;15.50;99.90;;;;;;4960376;28;20400;-89
2021/09/27 02:23:33;;;;;;;2.20;2.00;;;15.50;99.90;;;;;;4934816;28;20421;-91
2021/09/27 02:26:18;;;;;;;2.10;1.90;;;15.50;99.90;;;;;;4985826;28;20420;-89
2021/09/27 02:29:02;;;;;;;1.90;1.80;;;15.50;99.90;;;;;;4944896;28;20409;-89
2021/09/27 02:32:01;;;;;;;1.67;1.58;;;15.50;99.90;;;;;;4962549;28;20404;-89
2021/09/27 02:35:00;;;;;;;2.00;1.90;;;15.50;99.90;;;;;;4980503;28;20445;-89
2021/09/27 02:38:03;;;;;;;1.90;1.80;;;15.50;99.90;;;;;;4972608;28;20494;-88
2021/09/27 02:40:58;;;;;;;1.85;1.75;;;15.50;99.90;;;;;;4947321;28;20409;-91
2021/09/27 02:43:44;;;;;;;1.90;1.73;;;15.50;99.90;;;;;;4946892;28;20389;-90
2021/09/27 02:46:29;;;;;;;1.95;1.75;;;15.50;99.90;;;;;;4962869;28;20413;-88
2021/09/27 02:49:14;;;;;;;2.00;1.80;;;15.50;99.90;;;;;;4945989;28;20442;-88
2021/09/27 02:52:00;;;;;;;2.45;2.00;;;15.50;99.90;;;;;;4950158;28;20429;-88
2021/09/27 02:54:49;;;;;;;2.10;1.90;;;15.50;99.90;;;;;;4954405;28;20487;-85
2021/09/27 02:57:45;;;;;;;1.70;1.60;;;15.50;99.90;;;;;;4949267;28;20486;-88
2021/09/27 03:00:48;;;;;;;1.75;1.65;;;15.50;99.90;;;;;;4943158;28;20426;-88
2021/09/27 03:03:42;;;;;;;1.83;1.73;;;15.50;99.90;;;;;;4951189;28;20400;-89
2021/09/27 03:06:52;;;;;;;2.10;2.00;;;15.50;99.90;;;;;;4972260;28;20441;-86
2021/09/27 03:10:01;;;;;;;1.83;1.73;;;15.60;99.90;;;;;;4938476;28;20400;-90
2021/09/27 03:13:03;;;;;;;3.47;2.00;;;15.50;99.90;;;;;;4961308;28;20436;-87
2021/09/27 03:15:56;;;;;;;1.90;1.80;;;15.50;99.90;;;;;;4974286;28;20409;-89
2021/09/27 03:18:45;;;;;;;1.90;1.80;;;15.50;99.90;;;;;;4959426;28;20929;-89
2021/09/27 03:22:11;;;;;;;2.30;2.10;;;15.50;99.90;;;;;;4963218;28;20413;-87
2021/09/27 03:25:24;;;;;;;2.25;2.05;;;15.40;99.90;;;;;;4948202;28;20429;-89
2021/09/27 03:28:32;;;;;;;2.00;1.90;;;15.40;99.90;;;;;;4961784;28;20851;-86
2021/09/27 03:31:35;;;;;;;1.80;1.70;;;15.30;99.90;;;;;;4965516;28;20449;-91
2021/09/27 03:34:33;;;;;;;2.35;2.17;;;15.30;99.90;;;;;;4956864;28;20402;-91
2021/09/27 03:37:39;;;;;;;2.50;2.20;;;15.30;99.90;;;;;;4940727;28;20507;-89
2021/09/27 03:40:46;;;;;;;2.00;1.90;;;15.30;99.90;;;;;;4974891;28;20421;-88
2021/09/27 03:43:33;;;;;;;2.72;2.45;;;15.20;99.90;;;;;;4958226;28;20804;-91
2021/09/27 03:46:39;;;;;;;1.80;1.70;;;15.20;99.90;;;;;;4944697;28;20463;-87
2021/09/27 03:49:29;;;;;;;2.17;1.98;;;15.20;99.90;;;;;;4943949;28;20967;-88
2021/09/27 03:52:23;;;;;;;2.03;1.90;;;15.10;99.90;;;;;;4937095;28;20473;-90
2021/09/27 03:55:10;;;;;;;1.63;1.52;;;15.20;99.90;;;;;;4947327;28;20458;-87
2021/09/27 03:58:25;;;;;;;1.87;1.77;;;15.20;99.90;;;;;;4949705;28;20454;-87
2021/09/27 04:01:24;;;;;;;2.50;2.10;;;15.20;99.90;;;;;;4946447;28;20429;-90
2021/09/27 04:04:27;;;;;;;1.67;1.58;;;15.30;99.90;;;;;;4958355;28;20441;-89
2021/09/27 04:07:18;;;;;;;1.70;1.60;;;15.30;99.90;;;;;;4950083;28;20596;-90
2021/09/27 04:10:36;;;;;;;1.83;1.73;;;15.40;99.90;;;;;;4964531;28;20395;-87
2021/09/27 04:13:44;;;;;;;1.60;1.50;;;15.40;99.90;;;;;;4962799;28;20417;-88
2021/09/27 04:16:56;;;;;;;2.38;2.17;;;15.40;99.90;;;;;;4932404;28;20393;-89
2021/09/27 04:19:46;;;;;;;1.67;1.58;;;15.30;99.90;;;;;;4985530;28;20449;-89
2021/09/27 04:22:54;;;;;;;2.00;1.90;;;15.30;99.90;;;;;;4949567;28;20417;-89
2021/09/27 04:26:05;;;;;;;2.17;1.98;;;15.30;99.90;;;;;;4968241;28;20392;-88
2021/09/27 04:29:20;;;;;;;2.40;2.05;;;15.30;99.90;;;;;;4961028;28;20485;-90
2021/09/27 04:32:42;;;;;;;1.80;1.70;;;15.20;99.90;;;;;;4983362;28;20436;-89
2021/09/27 04:35:47;;;;;;;1.98;1.88;;;15.20;99.90;;;;;;4971773;28;20461;-89
2021/09/27 04:38:32;;;;;;;1.83;1.73;;;15.20;99.90;;;;;;4984056;28;20423;-88
2021/09/27 04:41:55;;;;;;;2.30;2.10;;;15.20;99.90;;;;;;4956647;28;20449;-88
2021/09/27 04:44:47;;;;;;;1.83;1.73;;;15.20;99.90;;;;;;4971158;28;20429;-91
2021/09/27 04:48:09;;;;;;;2.13;2.03;;;15.20;99.90;;;;;;4952808;28;20457;-89
2021/09/27 04:51:02;;;;;;;1.98;1.88;;;15.20;99.90;;;;;;4951705;28;20410;-87
2021/09/27 04:54:20;;;;;;;1.83;1.73;;;15.20;99.90;;;;;;4972428;28;20393;-91
2021/09/27 04:57:26;;;;;;;2.15;1.95;;;15.30;99.90;;;;;;4979118;28;20429;-90
2021/09/27 05:00:21;;;;;;;2.00;1.90;;;15.30;99.90;;;;;;4940865;28;20461;-89
2021/09/27 05:03:15;;;;;;;2.10;2.00;;;15.30;99.90;;;;;;4959375;28;20461;-92
2021/09/27 05:06:28;;;;;;;1.90;1.80;;;15.30;99.90;;;;;;4969483;28;20422;-89
2021/09/27 05:09:50;;;;;;;3.25;2.10;;;15.30;99.90;;;;;;4973620;28;20432;-90
2021/09/27 05:12:40;;;;;;;2.13;1.73;;;15.30;99.90;;;;;;4974610;28;20424;-85
2021/09/27 05:15:40;;;;;;;2.00;1.90;;;15.30;99.90;;;;;;4964309;28;20453;-87
2021/09/27 05:18:40;;;;;;;4.28;2.42;;;15.40;99.90;;;;;;4967183;28;20429;-91
2021/09/27 05:21:30;;;;;;;2.13;2.03;;;15.40;99.90;;;;;;4955085;28;20393;-91
2021/09/27 05:24:43;;;;;;;3.10;2.30;;;15.40;99.90;;;;;;4954835;28;20397;-91
2021/09/27 05:27:38;;;;;;;2.25;2.08;;;15.40;99.90;;;;;;4974077;28;20528;-89
2021/09/27 05:30:46;;;;;;;2.20;2.00;;;15.40;99.90;;;;;;4962526;28;20401;-89
2021/09/27 05:33:36;;;;;;;2.50;2.30;;;15.40;99.90;;;;;;4958090;28;20405;-92
2021/09/27 05:36:50;;;;;;;2.42;2.22;;;15.40;99.90;;;;;;4966082;28;20417;-91
2021/09/27 05:40:13;;;;;;;3.08;2.70;;;15.40;99.90;;;;;;4955152;28;20388;-89
2021/09/27 05:43:03;;;;;;;3.10;2.40;;;15.40;99.90;;;;;;4978621;28;20405;-89
2021/09/27 05:46:26;;;;;;;2.20;2.00;;;15.40;99.90;;;;;;4977441;28;20397;-90
2021/09/27 05:49:24;;;;;;;2.70;2.50;;;15.40;99.90;;;;;;4969700;28;20426;-89
2021/09/27 05:52:36;;;;;;;3.00;2.70;;;15.50;99.90;;;;;;4942894;28;20468;-90
2021/09/27 05:55:40;;;;;;;2.83;2.50;;;15.50;99.90;;;;;;4955225;28;20409;-91
2021/09/27 05:59:04;;;;;;;3.17;2.60;;;15.50;99.90;;;;;;4960468;28;20411;-92
2021/09/27 06:02:41;;;;;;;2.63;2.43;;;15.60;99.90;;;;;;4980704;28;20405;-93
2021/09/27 06:05:28;;;;;;;3.07;2.77;;;15.60;99.90;;;;;;4961400;28;20462;-91
2021/09/27 06:08:23;;;;;;;2.35;2.15;;;15.70;99.90;;;;;;4967910;28;20393;-89
2021/09/27 06:11:35;;;;;;;2.72;2.53;;;15.60;99.90;;;;;;4960947;28;20459;-88
2021/09/27 06:14:20;;;;;;;3.10;2.58;;;15.70;99.90;;;;;;4973744;28;20422;-91
2021/09/27 06:17:14;;;;;;;3.20;2.80;;;15.70;99.90;;;;;;4945432;28;20431;-90
2021/09/27 06:20:05;;;;;;;2.78;2.58;;;15.80;99.90;;;;;;4953501;28;20421;-92
2021/09/27 06:22:53;;;;;;;3.42;3.13;;;15.80;99.90;;;;;;4975054;28;20389;-90
2021/09/27 06:25:53;;;;;;;3.28;2.97;;;16.00;99.90;;;;;;4951819;28;20424;-88
2021/09/27 06:28:56;;;;;;;3.30;3.00;;;15.90;99.90;;;;;;4958269;28;20572;-91
2021/09/27 06:31:59;;;;;;;3.07;2.77;;;16.00;99.90;;;;;;4989807;28;20404;-91
2021/09/27 06:34:51;;;;;;;3.77;3.37;;;16.10;99.90;;;;;;4954210;28;20413;-93
2021/09/27 06:37:36;;;;;;;3.50;3.20;;;16.20;99.90;;;;;;4944099;28;20400;-90
2021/09/27 06:40:20;;;;;;;4.90;3.10;;;16.20;99.90;;;;;;4941562;28;20418;-92
2021/09/27 06:43:07;;;;;;;2.50;2.30;;;16.30;99.90;;;;;;4942138;28;20429;-91
2021/09/27 06:45:52;;;;;;;2.70;2.50;;;16.40;99.90;;;;;;4971601;28;20476;-91
2021/09/27 06:48:36;;;;;;;3.28;2.97;;;16.40;99.90;;;;;;4941279;28;20429;-90
2021/09/27 06:51:21;;;;;;;3.83;2.80;;;16.50;99.90;;;;;;4945473;28;20421;-90
2021/09/27 06:54:05;;;;;;;2.80;2.60;;;16.50;99.90;;;;;;4946746;28;20413;-89
2021/09/27 06:56:50;;;;;;;2.60;2.40;;;16.50;99.90;;;;;;4957867;28;20497;-91
2021/09/27 06:59:34;;;;;;;3.13;2.92;;;16.60;99.90;;;;;;4945575;28;20413;-88
2021/09/27 07:02:18;;;;;;;3.23;2.93;;;16.80;99.90;;;;;;4940112;28;20400;-90
2021/09/27 07:05:03;;;;;;;3.83;3.43;;;16.80;99.90;;;;;;4955267;28;20413;-91
2021/09/27 07:07:47;;;;;;;3.30;3.00;;;16.80;99.90;;;;;;4945421;28;20409;-90
2021/09/27 07:10:31;;;;;;;3.72;3.33;;;16.80;99.90;;;;;;4981946;28;20421;-92
2021/09/27 07:13:16;;;;;;;2.90;2.60;;;16.90;99.90;;;;;;4939301;28;20401;-89
2021/09/27 07:16:00;;;;;;;4.28;3.58;;;17.00;99.90;;;;;;4934930;28;20400;-90
2021/09/27 07:18:44;;;;;;;3.15;2.92;;;17.00;99.90;;;;;;4949325;28;20401;-90
2021/09/27 07:21:29;;;;;;;3.42;3.17;;;17.10;99.90;;;;;;4952846;28;20401;-90
2021/09/27 07:24:15;;;;;;;3.40;3.10;;;17.10;99.90;;;;;;4931247;28;20897;-91
2021/09/27 07:26:59;;;;;;;3.50;3.20;;;17.00;99.90;;;;;;4972167;28;20411;-90
2021/09/27 07:29:44;;;;;;;3.40;3.10;;;17.10;99.90;;;;;;4953161;28;20450;-90
2021/09/27 07:32:28;;;;;;;4.00;3.60;;;17.10;99.90;;;;;;4953953;28;20429;-92
2021/09/27 07:35:14;;;;;;;2.77;2.57;;;17.20;99.90;;;;;;4940017;28;20408;-92
2021/09/27 07:37:58;;;;;;;2.77;2.57;;;17.40;99.90;;;;;;4948518;28;20385;-89
2021/09/27 07:40:43;;;;;;;3.40;3.10;;;17.50;99.90;;;;;;4940681;28;20413;-90
2021/09/27 07:43:27;;;;;;;3.60;3.00;;;17.60;99.90;;;;;;4939950;28;20655;-91
2021/09/27 07:46:15;;;;;;;3.75;2.83;;;17.70;99.90;;;;;;4932081;28;20477;-91
2021/09/27 07:48:59;;;;;;;3.03;2.83;;;17.90;99.90;;;;;;4961132;28;20417;-91
2021/09/27 07:51:43;;;;;;;2.80;2.60;;;18.00;99.90;;;;;;4967162;28;20392;-90
2021/09/27 07:54:28;;;;;;;3.22;2.92;;;18.10;99.90;;;;;;4953305;28;20668;-92
2021/09/27 07:57:12;;;;;;;3.65;3.33;;;18.20;99.90;;;;;;4960112;28;20575;-91
2021/09/27 07:59:57;;;;;;;2.60;2.40;;;18.30;99.90;;;;;;4940370;28;20377;-92
2021/09/27 08:02:42;;;;;;;3.05;2.85;;;18.40;99.90;;;;;;4953265;28;20449;-93
2021/09/27 08:05:29;;;;;;;3.70;3.40;;;18.50;99.90;;;;;;4965952;28;20417;-89
2021/09/27 08:08:14;;;;;;;2.92;2.63;;;18.60;99.90;;;;;;4933854;28;20413;-88
2021/09/27 08:10:58;;;;;;;3.03;2.83;;;18.60;99.90;;;;;;4937166;28;20413;-91
2021/09/27 08:13:42;;;;;;;3.13;2.92;;;18.70;99.90;;;;;;4941053;28;20458;-92
2021/09/27 08:16:27;;;;;;;3.00;2.70;;;18.90;99.90;;;;;;4960554;28;20437;-91
2021/09/27 08:19:12;;;;;;;2.80;2.60;;;18.90;99.90;;;;;;4964999;28;21031;-90
2021/09/27 08:21:56;;;;;;;3.22;2.90;;;19.00;99.90;;;;;;4946491;28;20421;-92
2021/09/27 08:24:41;;;;;;;3.30;2.95;;;19.10;99.90;;;;;;4953579;28;20410;-89
2021/09/27 08:27:25;;;;;;;3.83;3.03;;;19.10;99.90;;;;;;4967920;28;20405;-91
2021/09/27 08:30:11;;;;;;;3.70;3.30;;;19.10;99.90;;;;;;4957540;28;20405;-91
2021/09/27 08:32:55;;;;;;;3.55;3.20;;;18.90;99.90;;;;;;4933949;28;20410;-91
2021/09/27 08:35:40;;;;;;;3.13;2.87;;;18.90;99.90;;;;;;4972824;28;20996;-92
2021/09/27 08:38:24;;;;;;;3.63;2.97;;;19.00;99.90;;;;;;4959389;28;20432;-92
2021/09/27 08:41:29;;;;;;;3.15;2.95;;;19.20;99.90;;;;;;4942097;28;20399;-91
2021/09/27 08:44:46;;;;;;;3.67;3.38;;;19.40;99.90;;;;;;4966412;28;20417;-92
2021/09/27 08:47:44;;;;;;;3.05;2.85;;;19.50;99.90;;;;;;4958097;28;20414;-91
2021/09/27 08:50:32;;;;;;;2.80;2.55;;;19.70;99.90;;;;;;4955926;28;20438;-92
2021/09/27 08:53:25;;;;;;;2.88;2.65;;;19.90;99.90;;;;;;4942701;28;20486;-91
2021/09/27 08:56:15;;;;;;;3.03;2.83;;;19.80;99.90;;;;;;4955893;28;20429;-92
2021/09/27 08:59:10;;;;;;;2.67;2.47;;;19.90;99.90;;;;;;4981761;28;20522;-90
2021/09/27 09:02:06;;;;;;;3.35;2.97;;;20.00;99.90;;;;;;4961024;28;20643;-90
2021/09/27 09:05:04;;;;;;;3.60;3.30;;;20.30;99.90;;;;;;4959391;28;20466;-92
2021/09/27 09:07:50;;;;;;;3.00;2.70;;;20.30;99.90;;;;;;4973135;28;20482;-92
2021/09/27 09:10:51;;;;;;;4.05;2.97;;;20.50;99.90;;;;;;4967019;28;20491;-91
2021/09/27 09:13:43;;;;;;;3.80;3.28;;;20.70;99.90;;;;;;4974695;28;20377;-90
2021/09/27 09:16:28;;;;;;;3.55;3.00;;;20.80;99.90;;;;;;4957932;28;20478;-89
2021/09/27 09:19:15;;;;;;;3.05;2.83;;;20.90;99.90;;;;;;4955850;28;20444;-91
2021/09/27 09:22:14;;;;;;;3.28;2.85;;;20.90;99.90;;;;;;4947653;28;20397;-92
2021/09/27 09:24:59;;;;;;;4.28;3.58;;;21.10;99.90;;;;;;4943945;28;20389;-91
2021/09/27 09:27:43;;;;;;;2.83;2.63;;;21.20;99.90;;;;;;4949899;28;20442;-90
2021/09/27 09:30:48;;;;;;;4.45;3.10;;;21.30;99.90;;;;;;4951356;28;20427;-92
2021/09/27 09:33:42;;;;;;;3.90;3.50;;;21.50;99.90;;;;;;4985103;28;20401;-91
2021/09/27 09:36:33;;;;;;;3.70;3.40;;;21.50;99.90;;;;;;4973797;28;20413;-92
2021/09/27 09:39:32;;;;;;;3.43;3.13;;;21.60;99.90;;;;;;4973493;28;20761;-90
2021/09/27 09:42:16;;;;;;;13.95;7.13;;;21.70;99.90;;;;;;4950066;28;20598;-91
2021/09/27 09:45:16;;;;;;;3.60;3.30;;;21.70;99.90;;;;;;4973916;28;20416;-91
2021/09/27 09:48:12;;;;;;;3.85;3.17;;;21.80;99.90;;;;;;4946248;28;20604;-92
2021/09/27 09:50:59;;;;;;;16.27;5.07;;;21.90;99.90;;;;;;4973796;28;20416;-90
2021/09/27 09:53:43;;;;;;;12.07;7.03;;;22.00;99.90;;;;;;4944768;28;20421;-90
2021/09/27 09:56:33;;;;;;;3.92;3.45;;;22.20;99.90;;;;;;4952388;28;20483;-91
2021/09/27 09:59:27;;;;;;;3.70;3.40;;;22.40;99.90;;;;;;4943197;28;20470;-91
2021/09/27 10:02:18;;;;;;;3.17;2.92;;;22.50;99.90;;;;;;4959482;28;20437;-90
2021/09/27 10:05:08;;;;;;;3.10;2.85;;;22.50;99.90;;;;;;4959884;28;20643;-91
2021/09/27 10:07:54;;;;;;;6.13;2.90;;;22.60;99.90;;;;;;4957344;28;20470;-91
2021/09/27 10:10:42;;;;;;;3.88;3.55;;;22.80;99.90;;;;;;4970687;28;20411;-92
2021/09/27 10:13:42;;;;;;;2.70;2.50;;;22.80;99.90;;;;;;4951687;28;20474;-90
2021/09/27 10:16:45;;;;;;;4.57;3.17;;;23.00;99.90;;;;;;4959506;28;20437;-91
2021/09/27 10:19:38;;;;;;;3.30;3.00;;;22.90;99.90;;;;;;4958316;28;20464;-90
2021/09/27 10:22:24;;;;;;;4.45;3.35;;;22.90;99.90;;;;;;4957318;28;20400;-90
2021/09/27 10:25:26;;;;;;;4.05;3.38;;;22.90;99.90;;;;;;4946375;28;20401;-91
2021/09/27 10:28:15;;;;;;;3.60;3.30;;;23.10;99.90;;;;;;4965840;28;20393;-91
2021/09/27 10:31:00;;;;;;;5.32;3.65;;;23.20;99.90;;;;;;4959053;28;20467;-91
2021/09/27 10:34:02;;;;;;;3.50;3.05;;;23.30;99.90;;;;;;4945919;28;20468;-91
2021/09/27 10:36:51;;;;;;;3.60;3.20;;;23.40;99.90;;;;;;4958539;28;20404;-90
2021/09/27 10:39:36;;;;;;;3.60;3.30;;;23.70;99.90;;;;;;4955473;28;20438;-91
2021/09/27 10:42:43;;;;;;;3.35;3.05;;;23.80;99.90;;;;;;4959819;28;20398;-91
2021/09/27 10:45:27;;;;;;;4.20;3.40;;;23.90;99.90;;;;;;4975778;28;20397;-91
2021/09/27 10:48:11;;;;;;;3.20;2.90;;;24.00;99.90;;;;;;4944040;28;20408;-90
2021/09/27 10:50:59;;;;;;;3.00;2.70;;;24.00;99.90;;;;;;4959028;28;20424;-92
2021/09/27 10:53:54;;;;;;;3.33;3.13;;;24.10;99.90;;;;;;4941953;28;20383;-91
2021/09/27 10:56:40;;;;;;;3.43;3.13;;;24.10;99.90;;;;;;4963868;28;20424;-91
2021/09/27 10:59:44;;;;;;;3.95;3.55;;;23.80;99.90;;;;;;4964068;28;20420;-90
2021/09/27 11:02:33;;;;;;;3.10;2.90;;;23.70;99.90;;;;;;4968586;28;20429;-90
2021/09/27 11:05:54;;;;;;;2.85;2.65;;;23.70;99.90;;;;;;4946177;28;20408;-92
2021/09/27 11:08:44;;;;;;;8.10;3.08;;;23.60;99.90;;;;;;4965567;28;20508;-91
2021/09/27 11:11:28;;;;;;;3.75;3.38;;;23.60;99.90;;;;;;4979534;28;20417;-90
2021/09/27 11:14:28;;;;;;;3.80;3.30;;;23.70;99.90;;;;;;4959219;28;20447;-91
2021/09/27 11:17:33;;;;;;;3.00;2.80;;;23.50;99.90;;;;;;4972113;28;20474;-91
2021/09/27 11:20:30;;;;;;;3.60;3.25;;;23.50;99.90;;;;;;4951360;28;20432;-91
2021/09/27 11:23:20;;;;;;;3.35;3.08;;;23.60;99.90;;;;;;4971045;28;20475;-91
2021/09/27 11:26:18;;;;;;;2.80;2.60;;;23.40;99.90;;;;;;4981177;28;20419;-92
2021/09/27 11:29:21;;;;;;;3.20;3.00;;;23.40;99.90;;;;;;4949384;28;20885;-91
2021/09/27 11:32:25;;;;;;;3.53;3.22;;;23.70;99.90;;;;;;4958911;28;20429;-91
2021/09/27 11:35:37;;;;;;;3.70;3.40;;;23.90;99.90;;;;;;4973220;28;20612;-91
2021/09/27 11:38:40;;;;;;;4.13;3.60;;;23.90;99.90;;;;;;4970568;28;20436;-90
2021/09/27 11:41:25;;;;;;;4.15;3.15;;;23.70;99.90;;;;;;4950776;28;20412;-90
2021/09/27 11:44:25;;;;;;;3.55;3.25;;;23.70;99.90;;;;;;4949220;28;20409;-91
2021/09/27 11:47:14;;;;;;;3.73;3.43;;;23.80;99.90;;;;;;4972204;28;20655;-91
2021/09/27 11:50:02;;;;;;;3.70;3.40;;;23.70;99.90;;;;;;4964890;28;20388;-91
2021/09/27 11:52:53;;;;;;;3.80;3.40;;;23.70;99.90;;;;;;4946862;28;20489;-91
2021/09/27 11:55:40;;;;;;;4.10;3.70;;;24.00;99.90;;;;;;4962170;28;20571;-91
2021/09/27 11:58:29;;;;;;;3.88;3.58;;;24.00;99.90;;;;;;4961877;28;20490;-91
2021/09/27 12:01:51;;;;;;;5.55;3.17;;;24.10;99.90;;;;;;4960219;28;20524;-90
2021/09/27 12:04:39;;;;;;;4.07;3.67;;;24.40;99.90;;;;;;4981648;28;20403;-91
2021/09/27 12:07:27;;;;;;;3.42;3.15;;;24.40;99.90;;;;;;4973853;28;20416;-90
2021/09/27 12:10:19;;;;;;;3.72;3.40;;;24.60;99.90;;;;;;4967269;28;20549;-91
2021/09/27 12:13:24;;;;;;;3.42;3.15;;;24.70;99.90;;;;;;4950976;28;20456;-91
2021/09/27 12:16:24;;;;;;;3.05;2.85;;;24.70;99.90;;;;;;4959075;28;20393;-91
2021/09/27 12:19:28;;;;;;;4.40;4.00;;;25.10;99.90;;;;;;4942546;28;20425;-91
2021/09/27 12:22:19;;;;;;;4.65;3.65;;;25.20;99.90;;;;;;4972506;28;20425;-91
2021/09/27 12:25:08;;;;;;;4.25;3.85;;;25.10;99.90;;;;;;4961097;28;20392;-91
2021/09/27 12:28:27;;;;;;;3.63;3.33;;;25.10;99.90;;;;;;4979730;28;20424;-90
2021/09/27 12:31:13;;;;;;;4.35;3.95;;;25.30;99.90;;;;;;4943571;28;20473;-90
2021/09/27 12:34:12;;;;;;;3.60;3.30;;;25.20;99.90;;;;;;4953478;28;20407;-90
2021/09/27 12:36:57;;;;;;;4.43;4.03;;;25.20;99.90;;;;;;4958831;28;20453;-91
2021/09/27 12:39:46;;;;;;;4.13;3.67;;;25.10;99.90;;;;;;4971952;28;20399;-89
2021/09/27 12:43:02;;;;;;;3.97;3.58;;;25.00;99.90;;;;;;4960275;28;20499;-90
2021/09/27 12:46:27;;;;;;;3.70;3.40;;;24.90;99.90;;;;;;4973790;28;20417;-90
2021/09/27 12:49:11;;;;;;;4.07;3.38;;;24.40;99.90;;;;;;4975107;28;20401;-91
2021/09/27 12:51:56;;;;;;;4.07;3.72;;;24.50;99.90;;;;;;4948658;28;20403;-90
2021/09/27 12:54:45;;;;;;;4.67;3.37;;;24.50;99.90;;;;;;4948026;28;20513;-90
2021/09/27 12:57:35;;;;;;;4.97;3.22;;;24.50;99.90;;;;;;4965668;28;20437;-92
2021/09/27 13:00:30;;;;;;;5.65;3.92;;;24.80;99.90;;;;;;4961512;28;20433;-91
2021/09/27 13:03:18;;;;;;;4.50;3.30;;;24.60;99.90;;;;;;4958735;28;20405;-91
2021/09/27 13:06:38;;;;;;;4.20;3.35;;;24.60;99.90;;;;;;4950398;28;20640;-92
2021/09/27 13:09:28;;;;;;;3.90;2.97;;;24.80;99.90;;;;;;4959604;28;20417;-90
2021/09/27 13:12:27;;;;;;;3.03;2.83;;;24.80;99.90;;;;;;4960349;28;20477;-92
2021/09/27 13:15:16;;;;;;;3.70;3.40;;;24.80;99.90;;;;;;4971096;28;20695;-91
2021/09/27 13:18:04;;;;;;;4.30;2.92;;;24.70;99.90;;;;;;4947314;28;20453;-91
2021/09/27 13:21:08;;;;;;;4.00;3.60;;;24.80;99.90;;;;;;4974394;28;20401;-90
2021/09/27 13:24:29;;;;;;;4.13;3.33;;;24.80;99.90;;;;;;4969267;28;20389;-91
2021/09/27 13:27:17;;;;;;;4.40;4.05;;;24.80;99.90;;;;;;4974689;28;20407;-90
2021/09/27 13:30:18;;;;;;;3.63;3.33;;;24.50;99.90;;;;;;4946040;28;20499;-91
2021/09/27 13:33:04;;;;;;;4.35;3.95;;;24.40;99.90;;;;;;4956566;28;20408;-91
2021/09/27 13:35:58;;;;;;;3.10;2.80;;;24.70;99.90;;;;;;4971950;28;20401;-90
2021/09/27 13:38:52;;;;;;;7.63;3.42;;;25.00;99.90;;;;;;4961774;28;20417;-91
2021/09/27 13:42:07;;;;;;;3.97;3.65;;;25.50;99.90;;;;;;4963508;28;20405;-91
2021/09/27 13:45:00;;;;;;;3.50;3.17;;;25.80;99.90;;;;;;4957224;28;20401;-90
2021/09/27 13:48:05;;;;;;;5.57;3.50;;;26.00;99.90;;;;;;4971673;28;20390;-91
2021/09/27 13:50:53;;;;;;;4.07;3.65;;;25.80;99.90;;;;;;4957313;28;20430;-90
2021/09/27 13:53:46;;;;;;;3.67;3.37;;;25.10;99.90;;;;;;4960460;28;20535;-92
2021/09/27 13:56:33;;;;;;;3.17;2.80;;;25.00;99.90;;;;;;4950709;28;20475;-91
2021/09/27 13:59:20;;;;;;;3.95;3.22;;;25.20;99.90;;;;;;4963111;28;20396;-90
2021/09/27 14:02:22;;;;;;;4.68;3.35;;;25.20;99.90;;;;;;4969521;28;20532;-91
2021/09/27 14:05:12;;;;;;;3.00;2.70;;;25.40;99.90;;;;;;4968412;28;20405;-91
2021/09/27 14:08:18;;;;;;;4.00;3.15;;;25.50;99.90;;;;;;4949654;28;20409;-91
2021/09/27 14:11:42;;;;;;;2.90;2.70;;;25.50;99.90;;;;;;4969503;28;21871;-91
2021/09/27 14:14:34;;;;;;;3.05;2.80;;;25.50;99.90;;;;;;4966523;28;20441;-91
2021/09/27 14:17:24;;;;;;;3.20;3.00;;;25.40;99.90;;;;;;4967148;28;20403;-90
2021/09/27 14:20:15;;;;;;;3.63;3.33;;;25.50;99.90;;;;;;4958109;28;20679;-91
2021/09/27 14:23:02;;;;;;;3.40;3.05;;;25.40;99.90;;;;;;4965832;28;20477;-91
2021/09/27 14:25:52;;;;;;;2.70;2.50;;;25.00;99.90;;;;;;4953633;28;20596;-91
2021/09/27 14:28:41;;;;;;;3.75;3.15;;;25.10;99.90;;;;;;4974135;28;20424;-89
2021/09/27 14:31:27;;;;;;;3.17;2.83;;;25.20;99.90;;;;;;4982212;28;20430;-91
2021/09/27 14:34:18;;;;;;;2.73;2.53;;;25.10;99.90;;;;;;4969276;28;20400;-91
2021/09/27 14:37:04;;;;;;;5.17;2.57;;;24.80;99.90;;;;;;4945704;28;20397;-91
2021/09/27 14:39:49;;;;;;;3.80;2.97;;;24.70;99.90;;;;;;4962195;28;20480;-91
2021/09/27 14:42:35;;;;;;;4.13;3.72;;;24.50;99.90;;;;;;4969261;28;20487;-91
2021/09/27 14:45:19;;;;;;;4.60;2.90;;;24.20;99.90;;;;;;4959985;28;20454;-91
2021/09/27 14:48:05;;;;;;;3.47;2.50;;;24.00;99.90;;;;;;4952532;28;20408;-90
2021/09/27 14:50:52;;;;;;;3.23;2.77;;;24.00;99.90;;;;;;4960510;28;20420;-92
2021/09/27 14:53:36;;;;;;;2.33;2.20;;;23.80;99.90;;;;;;4958177;28;20418;-90
2021/09/27 14:56:20;;;;;;;2.28;2.17;;;23.70;99.90;;;;;;4946885;28;20510;-91
2021/09/27 14:59:05;;;;;;;2.78;2.58;;;23.80;99.90;;;;;;4951057;28;20400;-91
2021/09/27 15:01:50;;;;;;;3.05;2.85;;;23.80;99.90;;;;;;4953891;28;20423;-91
2021/09/27 15:04:34;;;;;;;2.83;2.63;;;23.80;99.90;;;;;;4954276;28;20437;-91
2021/09/27 15:07:18;;;;;;;2.58;2.38;;;23.50;99.90;;;;;;4945638;28;20405;-91
2021/09/27 15:10:06;;;;;;;4.30;2.80;;;23.40;99.90;;;;;;4951711;28;20403;-90